Time;durP1;ratioP1;P1;durP2;ratioP2;P2;SDS_P1;SDS_P2;PMS_P1;PMS_P2;Temp;Humidity;BMP_temperature;BMP_pressure;BME280_temperature;BME280_humidity;BME280_pressure;Samples;Min_cycle;Max_cycle;Signal;HPM_P1;HPM_P2
2022/06/13 00:00:41;;;;;;;;;;;15.40;82.10;;;;;;4915223;29;19927;-81
2022/06/13 00:03:09;;;;;;;;;;;15.40;82.50;;;;;;4927744;29;20307;-81
2022/06/13 00:05:37;;;;;;;;;;;15.40;83.50;;;;;;4932201;29;19933;-81
2022/06/13 00:08:05;;;;;;;;;;;15.30;83.10;;;;;;4922591;29;19934;-79
2022/06/13 00:10:34;;;;;;;;;;;15.30;83.40;;;;;;4927958;29;19927;-81
2022/06/13 00:13:02;;;;;;;;;;;15.20;83.40;;;;;;4898775;29;20328;-81
2022/06/13 00:15:31;;;;;;;;;;;15.20;83.60;;;;;;4936322;29;19934;-80
2022/06/13 00:18:00;;;;;;;;;;;15.20;83.20;;;;;;4930431;29;19928;-83
2022/06/13 00:20:27;;;;;;;;;;;15.20;83.80;;;;;;4898542;29;19928;-80
2022/06/13 00:22:57;;;;;;;;;;;15.20;84.20;;;;;;4911565;29;19934;-79
2022/06/13 00:25:25;;;;;;;;;;;15.10;83.60;;;;;;4898163;29;19937;-78
2022/06/13 00:27:53;;;;;;;;;;;15.10;84.60;;;;;;4912852;29;19931;-80
2022/06/13 00:30:22;;;;;;;;;;;15.10;85.20;;;;;;4901579;29;19934;-80
2022/06/13 00:32:50;;;;;;;;;;;15.00;85.20;;;;;;4920287;29;19928;-81
2022/06/13 00:35:18;;;;;;;;;;;15.00;85.10;;;;;;4897845;29;19931;-81
2022/06/13 00:37:46;;;;;;;;;;;15.00;85.40;;;;;;4906938;29;19937;-78
2022/06/13 00:40:14;;;;;;;;;;;14.90;85.20;;;;;;4915641;29;19927;-80
2022/06/13 00:42:42;;;;;;;;;;;14.90;85.30;;;;;;4926877;29;19953;-83
2022/06/13 00:45:11;;;;;;;;;;;14.90;85.80;;;;;;4930393;29;20071;-79
2022/06/13 00:47:40;;;;;;;;;;;14.90;85.40;;;;;;4915450;29;19924;-79
2022/06/13 00:50:10;;;;;;;;;;;14.80;85.90;;;;;;4928524;29;19935;-80
2022/06/13 00:52:38;;;;;;;;;;;14.80;86.30;;;;;;4899908;29;19935;-80
2022/06/13 00:55:08;;;;;;;;;;;14.80;86.80;;;;;;4930569;29;19935;-80
2022/06/13 00:57:37;;;;;;;;;;;14.70;86.30;;;;;;4928979;29;19947;-80
2022/06/13 01:00:09;;;;;;;;;;;14.70;86.50;;;;;;4908496;29;19949;-80
2022/06/13 01:02:40;;;;;;;;;;;14.70;86.50;;;;;;4902440;29;19943;-80
2022/06/13 01:05:09;;;;;;;;;;;14.60;86.70;;;;;;4917681;29;19931;-79
2022/06/13 01:07:37;;;;;;;;;;;14.60;86.80;;;;;;4931988;29;19954;-82
2022/06/13 01:12:53;;;;;;;;;;;14.70;86.90;;;;;;4926777;29;19935;-79
2022/06/13 01:15:40;;;;;;;;;;;14.50;86.80;;;;;;4882821;29;19928;-80
2022/06/13 01:18:24;;;;;;;;;;;14.50;86.80;;;;;;4913172;29;19931;-79
2022/06/13 01:21:19;;;;;;;;;;;14.50;87.20;;;;;;4923898;29;19931;-80
2022/06/13 01:23:56;;;;;;;;;;;14.50;87.60;;;;;;4873296;29;19931;-81
2022/06/13 01:26:40;;;;;;;;;;;14.40;86.80;;;;;;4913611;29;19943;-80
2022/06/13 01:29:22;;;;;;;;;;;14.40;87.30;;;;;;4929781;29;19931;-79
2022/06/13 01:31:58;;;;;;;;;;;14.40;87.90;;;;;;4929456;29;19919;-80
2022/06/13 01:34:38;;;;;;;;;;;13.60;87.70;;;;;;4917043;29;19942;-82
2022/06/13 01:37:24;;;;;;;;;;;14.30;88.00;;;;;;4916531;29;19931;-82
2022/06/13 01:40:11;;;;;;;;;;;14.20;87.80;;;;;;4916922;29;19931;-80
2022/06/13 01:42:54;;;;;;;;;;;14.20;88.20;;;;;;4914796;29;19942;-79
2022/06/13 01:45:34;;;;;;;;;;;13.90;88.00;;;;;;4902712;29;19927;-80
2022/06/13 01:48:11;;;;;;;;;;;14.20;88.30;;;;;;4914459;29;19934;-80
2022/06/13 01:50:42;;;;;;;;;;;14.10;89.10;;;;;;4904560;29;19937;-80
2022/06/13 01:53:20;;;;;;;;;;;14.30;89.70;;;;;;4934968;29;19927;-78
2022/06/13 01:55:51;;;;;;;;;;;14.00;89.10;;;;;;4917898;29;19945;-81
2022/06/13 01:58:39;;;;;;;;;;;14.00;90.10;;;;;;4903032;29;19941;-79
2022/06/13 02:01:08;;;;;;;;;;;14.00;90.00;;;;;;4924426;29;19934;-82
2022/06/13 02:03:47;;;;;;;;;;;14.00;90.20;;;;;;4898663;29;19928;-81
2022/06/13 02:06:18;;;;;;;;;;;14.00;90.30;;;;;;4899417;29;19932;-81
2022/06/13 02:09:03;;;;;;;;;;;13.90;90.40;;;;;;4914751;29;19927;-80
2022/06/13 02:11:39;;;;;;;;;;;13.50;90.20;;;;;;4936192;29;19927;-84
2022/06/13 02:14:15;;;;;;;;;;;13.90;90.40;;;;;;4935098;29;19938;-81
2022/06/13 02:17:07;;;;;;;;;;;13.80;90.50;;;;;;4904554;29;19919;-82
2022/06/13 02:19:37;;;;;;;;;;;13.80;90.20;;;;;;4913749;29;19928;-80
2022/06/13 02:22:09;;;;;;;;;;;13.80;90.40;;;;;;4933610;29;20234;-82
2022/06/13 02:24:38;;;;;;;;;;;13.80;90.80;;;;;;4905831;29;19927;-81
2022/06/13 02:27:10;;;;;;;;;;;13.70;90.60;;;;;;4919874;29;19934;-80
2022/06/13 02:29:42;;;;;;;;;;;13.70;90.70;;;;;;4921549;29;19931;-79
2022/06/13 02:32:14;;;;;;;;;;;13.70;90.60;;;;;;4909775;29;19934;-82
2022/06/13 02:34:48;;;;;;;;;;;13.60;90.80;;;;;;4929565;29;19938;-80
2022/06/13 02:37:21;;;;;;;;;;;13.60;91.00;;;;;;4913610;29;19957;-80
2022/06/13 02:39:56;;;;;;;;;;;13.60;91.10;;;;;;4926730;29;20015;-80
2022/06/13 02:42:26;;;;;;;;;;;13.60;91.20;;;;;;4917589;29;19927;-81
2022/06/13 02:45:04;;;;;;;;;;;13.50;91.30;;;;;;4901137;29;19937;-80
2022/06/13 02:47:40;;;;;;;;;;;13.50;91.20;;;;;;4910522;29;19927;-79
2022/06/13 02:50:11;;;;;;;;;;;13.50;91.70;;;;;;4935078;29;19930;-81
2022/06/13 02:52:44;;;;;;;;;;;13.40;91.50;;;;;;4931673;29;19934;-80
2022/06/13 02:55:13;;;;;;;;;;;13.40;91.60;;;;;;4932944;29;19927;-80
2022/06/13 02:57:53;;;;;;;;;;;13.30;91.80;;;;;;4922304;29;19938;-84
2022/06/13 03:00:21;;;;;;;;;;;13.30;91.80;;;;;;4918107;29;19934;-82
2022/06/13 03:02:48;;;;;;;;;;;13.30;92.10;;;;;;4909313;29;19942;-81
2022/06/13 03:05:37;;;;;;;;;;;13.30;92.00;;;;;;4918407;29;19928;-79
2022/06/13 03:08:28;;;;;;;;;;;13.30;92.10;;;;;;4909523;29;19937;-82
2022/06/13 03:11:16;;;;;;;;;;;13.20;92.30;;;;;;4930857;29;19927;-79
2022/06/13 03:13:44;;;;;;;;;;;13.30;92.50;;;;;;4926356;29;19927;-81
2022/06/13 03:16:21;;;;;;;;;;;13.20;92.60;;;;;;4912577;29;19931;-78
2022/06/13 03:18:51;;;;;;;;;;;13.20;92.70;;;;;;4890245;29;19927;-79
2022/06/13 03:21:37;;;;;;;;;;;13.10;92.80;;;;;;4923535;29;19938;-82
2022/06/13 03:24:17;;;;;;;;;;;14.00;92.90;;;;;;4925170;29;19928;-79
2022/06/13 03:26:52;;;;;;;;;;;13.10;92.80;;;;;;4916074;29;19934;-78
2022/06/13 03:29:26;;;;;;;;;;;13.10;92.70;;;;;;4916707;29;19950;-79
2022/06/13 03:31:56;;;;;;;;;;;13.10;92.80;;;;;;4902087;29;19943;-80
2022/06/13 03:34:28;;;;;;;;;;;13.10;92.80;;;;;;4929431;29;19927;-79
2022/06/13 03:36:59;;;;;;;;;;;13.10;93.10;;;;;;4933200;29;19928;-79
2022/06/13 03:39:30;;;;;;;;;;;13.10;93.20;;;;;;4901041;29;19931;-78
2022/06/13 03:42:20;;;;;;;;;;;13.00;93.20;;;;;;4917674;29;19927;-78
2022/06/13 03:44:54;;;;;;;;;;;13.00;93.40;;;;;;4933022;29;20024;-81
2022/06/13 03:47:38;;;;;;;;;;;13.00;93.30;;;;;;4926129;29;19927;-81
2022/06/13 03:50:24;;;;;;;;;;;12.90;93.40;;;;;;4912049;29;19934;-78
2022/06/13 03:53:00;;;;;;;;;;;13.00;93.40;;;;;;4937685;29;19933;-79
2022/06/13 03:55:32;;;;;;;;;;;12.90;93.30;;;;;;4913411;29;19939;-77
2022/06/13 03:58:12;;;;;;;;;;;12.90;93.40;;;;;;4917897;29;19934;-82
2022/06/13 04:00:43;;;;;;;;;;;12.90;93.50;;;;;;4933260;29;20393;-80
2022/06/13 04:03:12;;;;;;;;;;;12.80;93.70;;;;;;4934155;29;20316;-79
2022/06/13 04:05:42;;;;;;;;;;;12.70;94.00;;;;;;4900621;29;19927;-79
2022/06/13 04:08:12;;;;;;;;;;;12.70;93.80;;;;;;4916804;29;19927;-82
2022/06/13 04:10:50;;;;;;;;;;;12.70;94.20;;;;;;4915549;29;19927;-79
2022/06/13 04:13:25;;;;;;;;;;;12.70;94.30;;;;;;4899108;29;19936;-80
2022/06/13 04:15:53;;;;;;;;;;;12.60;94.20;;;;;;4934141;29;19923;-84
2022/06/13 04:18:41;;;;;;;;;;;12.60;94.40;;;;;;4921608;29;19934;-80
2022/06/13 04:21:18;;;;;;;;;;;12.60;94.70;;;;;;4881215;29;19936;-81
2022/06/13 04:23:54;;;;;;;;;;;12.60;94.50;;;;;;4899572;29;19953;-78
2022/06/13 04:26:40;;;;;;;;;;;12.60;94.60;;;;;;4928657;29;19927;-79
2022/06/13 04:29:13;;;;;;;;;;;12.60;94.70;;;;;;4914320;29;19942;-81
2022/06/13 04:31:44;;;;;;;;;;;12.60;94.70;;;;;;4895434;29;19928;-79
2022/06/13 04:34:17;;;;;;;;;;;12.70;94.90;;;;;;4914551;29;19963;-81
2022/06/13 04:36:46;;;;;;;;;;;12.70;94.90;;;;;;4916731;29;19938;-78
2022/06/13 04:39:24;;;;;;;;;;;12.70;94.80;;;;;;4826491;29;10000202;-78
2022/06/13 04:41:55;;;;;;;;;;;12.70;95.20;;;;;;4912956;29;19928;-79
2022/06/13 04:44:26;;;;;;;;;;;12.70;95.30;;;;;;4927492;29;19927;-78
2022/06/13 04:46:55;;;;;;;;;;;12.80;95.30;;;;;;4923863;29;19941;-77
2022/06/13 04:49:42;;;;;;;;;;;12.80;95.30;;;;;;4911073;29;19928;-79
2022/06/13 04:52:32;;;;;;;;;;;12.80;95.20;;;;;;4897258;29;19927;-80
2022/06/13 04:55:04;;;;;;;;;;;12.80;95.30;;;;;;4925428;29;20432;-78
2022/06/13 04:57:34;;;;;;;;;;;13.00;95.20;;;;;;4912322;29;19931;-81
2022/06/13 05:00:07;;;;;;;;;;;13.00;95.10;;;;;;4916134;29;19931;-79
2022/06/13 05:02:46;;;;;;;;;;;12.50;95.10;;;;;;4931866;29;19925;-79
2022/06/13 05:05:27;;;;;;;;;;;13.00;95.20;;;;;;4923700;29;19927;-79
2022/06/13 05:07:55;;;;;;;;;;;13.10;95.00;;;;;;4888924;29;19927;-78
2022/06/13 05:10:24;;;;;;;;;;;13.10;95.30;;;;;;4908099;29;19930;-81
2022/06/13 05:12:54;;;;;;;;;;;13.20;95.50;;;;;;4923815;29;19931;-81
2022/06/13 05:15:29;;;;;;;;;;;13.20;95.10;;;;;;4926547;29;19938;-84
2022/06/13 05:18:17;;;;;;;;;;;13.30;95.40;;;;;;4916510;29;19934;-79
2022/06/13 05:21:00;;;;;;;;;;;13.40;95.20;;;;;;4933228;29;19933;-80
2022/06/13 05:23:38;;;;;;;;;;;13.40;95.20;;;;;;4912983;29;19934;-79
2022/06/13 05:26:07;;;;;;;;;;;13.40;95.30;;;;;;4913778;29;19927;-76
2022/06/13 05:28:37;;;;;;;;;;;13.50;95.40;;;;;;4915520;29;19926;-85
2022/06/13 05:31:11;;;;;;;;;;;13.50;95.80;;;;;;4932331;29;19937;-80
2022/06/13 05:33:41;;;;;;;;;;;13.50;95.40;;;;;;4901593;29;20004;-80
2022/06/13 05:36:12;;;;;;;;;;;13.60;95.50;;;;;;4930827;29;19938;-78
2022/06/13 05:38:43;;;;;;;;;;;13.60;95.30;;;;;;4899674;29;19932;-79
2022/06/13 05:41:38;;;;;;;;;;;13.70;95.10;;;;;;4913579;29;19927;-78
2022/06/13 05:44:10;;;;;;;;;;;13.80;95.00;;;;;;4930125;29;19937;-78
2022/06/13 05:46:38;;;;;;;;;;;12.60;94.80;;;;;;4921909;29;19933;-79
2022/06/13 05:49:07;;;;;;;;;;;14.40;95.10;;;;;;4907888;29;19935;-79
2022/06/13 05:51:35;;;;;;;;;;;14.30;95.10;;;;;;4924525;29;19931;-78
2022/06/13 05:54:04;;;;;;;;;;;14.00;94.80;;;;;;4888922;29;19923;-78
2022/06/13 05:56:35;;;;;;;;;;;14.10;94.80;;;;;;4891538;29;19937;-79
2022/06/13 05:59:04;;;;;;;;;;;14.10;94.70;;;;;;4930482;29;19922;-78
2022/06/13 06:01:35;;;;;;;;;;;14.10;95.00;;;;;;4930193;29;19927;-80
2022/06/13 06:04:04;;;;;;;;;;;14.20;94.80;;;;;;4925329;29;19927;-78
2022/06/13 06:06:36;;;;;;;;;;;14.20;94.60;;;;;;4923714;29;19931;-78
2022/06/13 06:09:07;;;;;;;;;;;14.30;94.60;;;;;;4911948;29;19938;-79
2022/06/13 06:11:37;;;;;;;;;;;14.40;94.50;;;;;;4932634;29;19946;-78
2022/06/13 06:14:07;;;;;;;;;;;14.40;94.20;;;;;;4903672;29;20235;-80
2022/06/13 06:16:37;;;;;;;;;;;14.50;94.30;;;;;;4912249;29;20780;-80
2022/06/13 06:19:06;;;;;;;;;;;14.50;94.30;;;;;;4924410;29;19927;-78
2022/06/13 06:21:35;;;;;;;;;;;14.50;94.20;;;;;;4900323;29;20008;-82
2022/06/13 06:24:02;;;;;;;;;;;14.60;94.50;;;;;;4905619;29;19928;-79
2022/06/13 06:26:32;;;;;;;;;;;15.90;94.60;;;;;;4910083;29;19931;-82
2022/06/13 06:29:01;;;;;;;;;;;14.70;93.80;;;;;;4930338;29;20283;-83
2022/06/13 06:31:33;;;;;;;;;;;14.90;93.90;;;;;;4927701;29;19927;-79
2022/06/13 06:34:02;;;;;;;;;;;14.80;93.70;;;;;;4927155;29;19931;-80
2022/06/13 06:36:30;;;;;;;;;;;14.90;93.90;;;;;;4928529;29;19942;-80
2022/06/13 06:38:58;;;;;;;;;;;15.10;93.70;;;;;;4894669;29;19931;-78
2022/06/13 06:41:26;;;;;;;;;;;14.00;93.60;;;;;;4925974;29;19927;-81
2022/06/13 06:43:56;;;;;;;;;;;15.00;93.50;;;;;;4926301;29;21474;-81
2022/06/13 06:46:25;;;;;;;;;;;15.00;93.10;;;;;;4932591;29;20377;-81
2022/06/13 06:48:53;;;;;;;;;;;15.00;93.10;;;;;;4893453;29;19931;-82
2022/06/13 06:51:21;;;;;;;;;;;15.10;93.60;;;;;;4924136;29;19931;-81
2022/06/13 07:02:08;;;;;;;;;;;15.20;93.20;;;;;;4911996;29;19934;-82
2022/06/13 07:04:36;;;;;;;;;;;15.20;93.20;;;;;;4920948;29;19934;-81
2022/06/13 07:07:04;;;;;;;;;;;15.20;92.90;;;;;;4897068;29;19931;-82
2022/06/13 07:09:31;;;;;;;;;;;15.30;93.00;;;;;;4909056;29;19939;-81
2022/06/13 07:11:59;;;;;;;;;;;15.30;92.80;;;;;;4919979;29;19926;-81
2022/06/13 07:14:28;;;;;;;;;;;15.30;92.60;;;;;;4891036;29;19931;-82
2022/06/13 07:16:57;;;;;;;;;;;15.40;92.50;;;;;;4905385;29;19935;-82
2022/06/13 07:19:25;;;;;;;;;;;15.40;92.50;;;;;;4894908;29;19954;-81
2022/06/13 07:21:56;;;;;;;;;;;15.40;92.50;;;;;;4926671;29;19931;-82
2022/06/13 07:24:28;;;;;;;;;;;15.50;92.40;;;;;;4904350;29;19938;-82
2022/06/13 07:26:56;;;;;;;;;;;15.70;92.60;;;;;;4912520;29;19928;-81
2022/06/13 07:29:28;;;;;;;;;;;15.50;91.70;;;;;;4911886;29;19942;-81
2022/06/13 07:32:03;;;;;;;;;;;15.50;91.90;;;;;;4928201;29;20094;-81
2022/06/13 07:34:32;;;;;;;;;;;15.60;91.80;;;;;;4927615;29;19931;-81
2022/06/13 07:37:01;;;;;;;;;;;15.70;91.60;;;;;;4908086;29;19927;-81
2022/06/13 07:39:29;;;;;;;;;;;15.80;91.50;;;;;;4920530;29;19931;-81
2022/06/13 07:41:58;;;;;;;;;;;16.00;90.90;;;;;;4901702;29;19938;-82
2022/06/13 07:44:28;;;;;;;;;;;16.00;90.70;;;;;;4924581;29;19942;-81
2022/06/13 07:46:58;;;;;;;;;;;16.10;90.80;;;;;;4878283;29;20407;-81
2022/06/13 07:49:26;;;;;;;;;;;16.10;90.80;;;;;;4928744;29;19933;-80
2022/06/13 07:51:55;;;;;;;;;;;16.20;90.30;;;;;;4920740;29;19931;-81
2022/06/13 07:54:24;;;;;;;;;;;16.20;90.80;;;;;;4909529;29;20463;-79
2022/06/13 07:56:51;;;;;;;;;;;16.30;90.40;;;;;;4924811;29;19943;-79
2022/06/13 07:59:21;;;;;;;;;;;16.40;90.10;;;;;;4913780;29;19928;-81
2022/06/13 08:01:49;;;;;;;;;;;16.50;89.90;;;;;;4910233;29;19942;-81
2022/06/13 08:04:17;;;;;;;;;;;16.60;90.00;;;;;;4912623;29;20123;-80
2022/06/13 08:06:45;;;;;;;;;;;16.70;88.90;;;;;;4920024;29;19932;-81
2022/06/13 08:09:13;;;;;;;;;;;16.90;87.10;;;;;;4924368;29;19927;-81
2022/06/13 08:11:44;;;;;;;;;;;17.00;87.90;;;;;;4913516;29;19935;-82
2022/06/13 08:14:12;;;;;;;;;;;17.10;88.20;;;;;;4911845;29;19931;-81
2022/06/13 08:16:40;;;;;;;;;;;17.30;86.00;;;;;;4928355;29;20025;-81
2022/06/13 08:19:09;;;;;;;;;;;17.40;85.10;;;;;;4925892;29;19928;-84
2022/06/13 08:21:38;;;;;;;;;;;17.50;84.90;;;;;;4912920;29;19919;-83
2022/06/13 08:24:06;;;;;;;;;;;17.40;84.30;;;;;;4935226;29;19926;-82
2022/06/13 08:26:40;;;;;;;;;;;17.40;84.20;;;;;;4925743;29;19941;-82
2022/06/13 08:29:08;;;;;;;;;;;17.70;84.60;;;;;;4919342;29;19931;-83
2022/06/13 08:31:37;;;;;;;;;;;17.70;85.80;;;;;;4898882;29;19928;-81
2022/06/13 08:34:05;;;;;;;;;;;16.80;82.90;;;;;;4910364;29;19927;-81
2022/06/13 08:36:33;;;;;;;;;;;17.70;82.50;;;;;;4935534;29;19942;-82
2022/06/13 08:39:02;;;;;;;;;;;17.90;82.50;;;;;;4908204;29;19927;-82
2022/06/13 08:41:58;;;;;;;;;;;17.90;81.70;;;;;;4924175;29;20816;-79
2022/06/13 08:44:35;;;;;;;;;;;18.00;82.40;;;;;;4895538;29;19928;-82
2022/06/13 08:47:23;;;;;;;;;;;18.20;82.50;;;;;;4915601;29;19942;-81
2022/06/13 08:49:58;;;;;;;;;;;18.20;82.50;;;;;;4928812;29;19941;-81
2022/06/13 08:52:26;;;;;;;;;;;18.30;82.70;;;;;;4900947;29;19938;-82
2022/06/13 08:54:54;;;;;;;;;;;18.30;82.70;;;;;;4928024;29;19938;-81
2022/06/13 08:57:25;;;;;;;;;;;18.40;82.10;;;;;;4895856;29;19938;-81
2022/06/13 08:59:55;;;;;;;;;;;18.60;82.40;;;;;;4928593;29;19931;-81
2022/06/13 09:02:27;;;;;;;;;;;18.60;81.60;;;;;;4899565;29;19932;-81
2022/06/13 09:04:58;;;;;;;;;;;18.70;82.00;;;;;;4922578;29;19939;-81
2022/06/13 09:07:31;;;;;;;;;;;19.30;81.90;;;;;;4907210;29;19950;-81
2022/06/13 09:09:58;;;;;;;;;;;18.80;81.30;;;;;;4903529;29;19931;-81
2022/06/13 09:12:45;;;;;;;;;;;18.80;80.80;;;;;;4905312;29;19927;-81
2022/06/13 09:15:16;;;;;;;;;;;18.70;80.30;;;;;;4924365;29;19931;-81
2022/06/13 09:17:47;;;;;;;;;;;18.70;80.80;;;;;;4903057;29;19942;-82
2022/06/13 09:20:21;;;;;;;;;;;18.60;80.70;;;;;;4908073;29;19939;-82
2022/06/13 09:22:52;;;;;;;;;;;18.60;80.20;;;;;;4911364;29;19927;-82
2022/06/13 09:25:40;;;;;;;;;;;18.70;81.30;;;;;;4920088;29;19927;-81
2022/06/13 09:28:10;;;;;;;;;;;18.70;79.90;;;;;;4901501;29;19954;-82
2022/06/13 09:30:43;;;;;;;;;;;18.90;79.60;;;;;;4902318;29;19941;-81
2022/06/13 09:33:14;;;;;;;;;;;19.00;78.80;;;;;;4904397;29;19936;-82
2022/06/13 09:35:56;;;;;;;;;;;19.30;78.80;;;;;;4900663;29;19935;-81
2022/06/13 09:38:29;;;;;;;;;;;19.40;77.40;;;;;;4890572;29;20398;-82
2022/06/13 09:41:03;;;;;;;;;;;19.50;77.90;;;;;;4887123;29;19934;-81
2022/06/13 09:43:34;;;;;;;;;;;19.50;77.30;;;;;;4895309;29;19928;-81
2022/06/13 09:46:09;;;;;;;;;;;19.50;76.90;;;;;;4909235;29;20090;-80
2022/06/13 09:49:00;;;;;;;;;;;19.40;77.30;;;;;;4559727;29;10000686;-82
2022/06/13 09:51:35;;;;;;;;;;;19.50;77.40;;;;;;4901701;29;19932;-80
2022/06/13 09:54:05;;;;;;;;;;;19.60;77.70;;;;;;4898292;29;19946;-80
2022/06/13 09:56:33;;;;;;;;;;;19.80;77.70;;;;;;4902056;29;20231;-81
2022/06/13 09:59:07;;;;;;;;;;;20.00;75.70;;;;;;4903828;29;19932;-80
2022/06/13 10:01:53;;;;;;;;;;;20.00;76.00;;;;;;4905376;29;19932;-81
2022/06/13 10:04:32;;;;;;;;;;;20.00;76.20;;;;;;4904074;29;19935;-80
2022/06/13 10:07:03;;;;;;;;;;;20.00;76.10;;;;;;4904315;29;19931;-81
2022/06/13 10:09:44;;;;;;;;;;;20.10;76.30;;;;;;4907780;29;20584;-81
2022/06/13 10:12:37;;;;;;;;;;;20.10;76.70;;;;;;4907252;29;19938;-81
2022/06/13 10:15:12;;;;;;;;;;;20.10;76.10;;;;;;4888084;29;19931;-81
2022/06/13 10:17:58;;;;;;;;;;;20.20;76.40;;;;;;4907620;29;19976;-82
2022/06/13 10:20:26;;;;;;;;;;;20.10;76.60;;;;;;4907603;29;19935;-81
2022/06/13 10:23:11;;;;;;;;;;;20.10;76.60;;;;;;4905274;29;20060;-81
2022/06/13 10:26:05;;;;;;;;;;;20.10;76.20;;;;;;4887785;29;20667;-80
2022/06/13 10:28:33;;;;;;;;;;;20.30;76.30;;;;;;4922583;29;19931;-80
2022/06/13 10:31:19;;;;;;;;;;;20.00;76.70;;;;;;4923797;29;21057;-83
2022/06/13 10:34:12;;;;;;;;;;;20.00;76.30;;;;;;4925020;29;19935;-81
2022/06/13 10:36:46;;;;;;;;;;;21.70;77.40;;;;;;4911722;29;19935;-82
2022/06/13 10:39:17;;;;;;;;;;;20.20;76.50;;;;;;4923565;29;19935;-80
2022/06/13 10:41:47;;;;;;;;;;;20.20;75.70;;;;;;4904874;29;20108;-80
2022/06/13 10:44:17;;;;;;;;;;;20.40;75.30;;;;;;4922534;29;19927;-83
2022/06/13 10:46:48;;;;;;;;;;;20.50;75.70;;;;;;4923437;29;19934;-82
2022/06/13 10:49:28;;;;;;;;;;;20.70;74.90;;;;;;4912017;29;19930;-79
2022/06/13 10:51:57;;;;;;;;;;;20.70;74.50;;;;;;4920489;29;19938;-80
2022/06/13 10:54:29;;;;;;;;;;;20.80;73.20;;;;;;4928995;29;20187;-81
2022/06/13 10:57:01;;;;;;;;;;;19.40;72.90;;;;;;4916567;29;20321;-81
2022/06/13 10:59:30;;;;;;;;;;;21.00;73.80;;;;;;4912016;29;19937;-81
2022/06/13 11:02:02;;;;;;;;;;;21.10;73.00;;;;;;4907843;29;19938;-81
2022/06/13 11:04:31;;;;;;;;;;;20.90;72.60;;;;;;4923127;23;19931;-85
2022/06/13 11:07:24;;;;;;;;;;;21.30;73.20;;;;;;4916456;29;19927;-84
2022/06/13 11:09:58;;;;;;;;;;;21.50;72.90;;;;;;4929175;29;20389;-86
2022/06/13 11:12:30;;;;;;;;;;;21.50;72.70;;;;;;4919452;29;19931;-85
2022/06/13 11:23:45;;;;;;;;;;;22.10;72.70;;;;;;4918307;29;19927;-84
2022/06/13 11:29:02;;;;;;;;;;;22.80;71.50;;;;;;4914509;29;19931;-84
2022/06/13 11:31:30;;;;;;;;;;;23.10;71.30;;;;;;4912303;29;19938;-84
2022/06/13 11:34:24;;;;;;;;;;;23.20;71.10;;;;;;4916478;29;19927;-85
2022/06/13 11:36:56;;;;;;;;;;;23.50;70.30;;;;;;4904919;29;19935;-84
2022/06/13 11:39:39;;;;;;;;;;;23.60;69.30;;;;;;4912623;29;19942;-84
2022/06/13 11:42:15;;;;;;;;;;;23.60;68.80;;;;;;4913747;29;19931;-85
2022/06/13 11:44:53;;;;;;;;;;;23.60;67.80;;;;;;4914914;29;21418;-84
2022/06/13 11:47:38;;;;;;;;;;;23.60;67.90;;;;;;4913840;29;19946;-84
2022/06/13 11:50:15;;;;;;;;;;;23.60;68.40;;;;;;4915309;29;19935;-85
2022/06/13 11:55:32;;;;;;;;;;;23.40;67.60;;;;;;4913704;29;19938;-84
2022/06/13 11:58:17;;;;;;;;;;;23.30;68.00;;;;;;4910623;29;20421;-85
2022/06/13 12:00:51;;;;;;;;;;;23.20;68.00;;;;;;4914145;29;20284;-86
2022/06/13 12:03:23;;;;;;;;;;;23.20;68.70;;;;;;4907028;29;19963;-84
2022/06/13 12:06:20;;;;;;;;;;;23.10;68.30;;;;;;4927255;29;19934;-84
2022/06/13 12:08:50;;;;;;;;;;;23.00;68.20;;;;;;4911719;29;19931;-84
2022/06/13 12:11:18;;;;;;;;;;;22.90;69.00;;;;;;4917122;29;20536;-85
2022/06/13 12:13:46;;;;;;;;;;;22.80;68.40;;;;;;4899197;29;19927;-84
2022/06/13 12:16:17;;;;;;;;;;;23.00;69.00;;;;;;4933305;29;19935;-85
2022/06/13 12:18:45;;;;;;;;;;;23.20;68.40;;;;;;4934125;29;19927;-85
2022/06/13 12:21:25;;;;;;;;;;;23.40;68.20;;;;;;4931035;29;19927;-85
2022/06/13 12:23:55;;;;;;;;;;;23.60;68.30;;;;;;4929574;29;20518;-85
2022/06/13 12:26:31;;;;;;;;;;;23.80;68.00;;;;;;4929929;29;20725;-85
2022/06/13 12:29:10;;;;;;;;;;;23.80;67.10;;;;;;4929148;29;19927;-85
2022/06/13 12:31:40;;;;;;;;;;;23.90;67.50;;;;;;4909982;29;20291;-82
2022/06/13 12:34:24;;;;;;;;;;;23.90;67.20;;;;;;4929147;29;19935;-84
2022/06/13 12:37:11;;;;;;;;;;;24.10;66.90;;;;;;4927889;29;20319;-85
2022/06/13 12:39:50;;;;;;;;;;;24.20;66.00;;;;;;4927692;29;19942;-84
2022/06/13 12:42:39;;;;;;;;;;;24.10;66.30;;;;;;4912962;29;19926;-85
2022/06/13 12:45:06;;;;;;;;;;;23.90;66.00;;;;;;4928461;29;20382;-84
2022/06/13 12:47:44;;;;;;;;;;;24.10;66.60;;;;;;4925387;29;19942;-85
2022/06/13 12:50:39;;;;;;;;;;;24.20;66.10;;;;;;4912411;29;19930;-84
2022/06/13 12:53:20;;;;;;;;;;;24.30;65.70;;;;;;4887225;29;19931;-85
2022/06/13 12:56:05;;;;;;;;;;;24.20;65.80;;;;;;4910372;29;19934;-84
2022/06/13 12:58:52;;;;;;;;;;;24.30;65.50;;;;;;4923758;29;20509;-84
2022/06/13 13:01:22;;;;;;;;;;;24.30;65.80;;;;;;4911661;29;19942;-85
2022/06/13 13:04:00;;;;;;;;;;;24.50;65.70;;;;;;4932803;29;19927;-85
2022/06/13 13:06:39;;;;;;;;;;;24.70;65.60;;;;;;4920817;29;19934;-85
2022/06/13 13:09:16;;;;;;;;;;;24.90;65.10;;;;;;4932337;29;19926;-85
2022/06/13 13:11:53;;;;;;;;;;;24.80;65.50;;;;;;4926938;29;19931;-85
2022/06/13 13:14:30;;;;;;;;;;;24.50;64.80;;;;;;4937307;29;19926;-85
2022/06/13 13:17:21;;;;;;;;;;;24.60;65.10;;;;;;4919057;29;19950;-85
2022/06/13 13:19:55;;;;;;;;;;;24.70;65.00;;;;;;4890806;29;19938;-85
2022/06/13 13:22:29;;;;;;;;;;;24.50;63.90;;;;;;4929644;29;19933;-84
2022/06/13 13:25:14;;;;;;;;;;;24.20;63.80;;;;;;4900500;29;19933;-85
2022/06/13 13:27:57;;;;;;;;;;;24.00;64.70;;;;;;4934221;29;19927;-86
2022/06/13 13:30:28;;;;;;;;;;;23.90;65.20;;;;;;4916242;29;20342;-85
2022/06/13 13:33:08;;;;;;;;;;;23.90;65.70;;;;;;4921129;29;20445;-85
2022/06/13 13:35:36;;;;;;;;;;;23.90;65.00;;;;;;4932880;29;19942;-85
2022/06/13 13:38:07;;;;;;;;;;;24.10;65.70;;;;;;4922693;29;19927;-84
2022/06/13 13:40:44;;;;;;;;;;;24.30;65.70;;;;;;4924175;29;19934;-85
2022/06/13 13:43:30;;;;;;;;;;;24.40;64.80;;;;;;4917267;29;19927;-85
2022/06/13 13:46:05;;;;;;;;;;;24.40;64.70;;;;;;4945266;29;19954;-86
2022/06/13 13:48:53;;;;;;;;;;;24.30;65.00;;;;;;4920461;29;19938;-86
2022/06/13 13:51:32;;;;;;;;;;;24.20;65.70;;;;;;4909260;29;20382;-85
2022/06/13 13:54:24;;;;;;;;;;;24.10;65.40;;;;;;4928797;29;19934;-85
2022/06/13 13:57:15;;;;;;;;;;;24.00;65.20;;;;;;4911086;29;19935;-87
2022/06/13 13:59:46;;;;;;;;;;;24.00;64.80;;;;;;4904621;29;19938;-86
2022/06/13 14:02:38;;;;;;;;;;;24.00;65.70;;;;;;4919755;29;19938;-85
2022/06/13 14:05:16;;;;;;;;;;;23.90;65.50;;;;;;4938290;29;19933;-86
2022/06/13 14:07:53;;;;;;;;;;;23.80;66.10;;;;;;4917300;29;19931;-84
2022/06/13 14:10:24;;;;;;;;;;;23.80;65.00;;;;;;4931384;29;19927;-85
2022/06/13 14:13:11;;;;;;;;;;;23.80;65.60;;;;;;4906488;29;19934;-85
2022/06/13 14:15:48;;;;;;;;;;;23.60;65.60;;;;;;4913486;29;19935;-85
2022/06/13 14:18:38;;;;;;;;;;;23.60;65.80;;;;;;4932177;29;19934;-86
2022/06/13 14:21:11;;;;;;;;;;;23.60;65.80;;;;;;4932030;29;20391;-85
2022/06/13 14:23:50;;;;;;;;;;;23.90;65.80;;;;;;4917212;29;19935;-87
2022/06/13 14:26:19;;;;;;;;;;;24.00;65.80;;;;;;4916981;29;19935;-85
2022/06/13 14:28:54;;;;;;;;;;;24.10;65.80;;;;;;4931245;29;19930;-86
2022/06/13 14:31:24;;;;;;;;;;;24.40;65.70;;;;;;4933090;29;19927;-85
2022/06/13 14:36:48;;;;;;;;;;;24.80;64.50;;;;;;4927621;29;19927;-88
2022/06/13 14:39:22;;;;;;;;;;;25.20;63.60;;;;;;4932921;29;20008;-87
2022/06/13 14:41:50;;;;;;;;;;;25.50;63.70;;;;;;4929856;29;19935;-86
2022/06/13 14:44:23;;;;;;;;;;;25.50;62.70;;;;;;4915886;29;19931;-85
2022/06/13 14:47:18;;;;;;;;;;;25.40;62.90;;;;;;4909904;29;19935;-85
2022/06/13 14:49:45;;;;;;;;;;;25.10;63.10;;;;;;4556691;29;10000048;-84
2022/06/13 14:52:28;;;;;;;;;;;24.70;63.40;;;;;;4920642;29;19930;-85
2022/06/13 14:55:04;;;;;;;;;;;24.50;64.10;;;;;;4931711;29;20366;-85
2022/06/13 14:58:00;;;;;;;;;;;24.60;64.20;;;;;;4915689;29;19935;-85
2022/06/13 15:00:34;;;;;;;;;;;24.30;63.90;;;;;;4918792;29;19927;-86
2022/06/13 15:03:09;;;;;;;;;;;24.10;64.20;;;;;;4901186;29;19934;-87
2022/06/13 15:05:37;;;;;;;;;;;24.00;64.20;;;;;;4919864;29;19938;-85
2022/06/13 15:08:18;;;;;;;;;;;23.90;64.70;;;;;;4891710;29;20303;-84
2022/06/13 15:10:52;;;;;;;;;;;23.70;64.20;;;;;;4909131;29;19937;-85
2022/06/13 15:13:22;;;;;;;;;;;23.70;64.90;;;;;;4914483;29;19942;-85
2022/06/13 15:15:56;;;;;;;;;;;23.80;64.90;;;;;;4915619;29;20071;-85
2022/06/13 15:18:29;;;;;;;;;;;23.70;64.50;;;;;;4900514;29;19941;-85
2022/06/13 15:20:59;;;;;;;;;;;23.80;64.60;;;;;;4916403;29;19927;-86
2022/06/13 15:23:50;;;;;;;;;;;23.30;64.50;;;;;;4916683;29;19942;-84
2022/06/13 15:26:23;;;;;;;;;;;24.20;64.50;;;;;;4932840;29;19927;-86